Richmond, TX (77469)

10:49 PM CDT on September 03, 2015 (GMT -0500)
Kingdom Heights | | Change Station
CLOSE
Current Station
Personal Weather Station
Location: Rosenberg, TX
Elevation: 95 ft
Nearby Weather Stations

Elev 95 ft 29.59 °N, 95.81 °W | Updated 5 minutes ago

Clear
Clear
79.2 °F
Feels Like 84 °F
N
3.2
Wind Variable Wind from SSW

Today
High -- | Low -- °F
--% Chance of Precip.
Yesterday
High -- | Low -- °F
Precip. -- in
7:01 AM 7:43 PM
Waning Gibbous, 64% visible
Pressure 29.89 in
Visibility 10.0 miles
Clouds Clear
Heat Index 84 °F
Dew Point 76 °F
Humidity 91%
Rainfall 0.32 in
Snow Depth Not available.
UV 0 out of 12
Pollen 5.30 out of 12
Air Quality Not available.
Flu Activity Not available.
METAR KSGR 040253Z AUTO 15006KT 10SM CLR 27/23 A2988 RMK AO2 SLP120 T02670233 53012
Pressure 29.89 in
Visibility 10.0 miles
Clouds Clear
Heat Index 84 °F
Dew Point 76 °F
Humidity 91%
Rainfall 0.32 in
Snow Depth Not available.
UV 0 out of 12
Pollen 5.30 out of 12
Air Quality Not available.
Flu Activity Not available.
METAR KSGR 040253Z AUTO 15006KT 10SM CLR 27/23 A2988 RMK AO2 SLP120 T02670233 53012

10-Day Weather Forecast

×

Almanac

Astronomy

Sep. 03, 2015 Rise Set
Actual Time
Civil Twilight
Nautical Twilight
Astronomical Twilight
Moon
Length of Visible Light
Length of Day
Tomorrow will be .
, % of the Moon is Illuminated

Today's Extremes

State Highs State Lows

Community

WunderPhotos

Upload Photos

1,852,118 photos uploaded!

WunderBlogs® & News

Nearby

Air Quality

  Air Quality AQ Index Pollutant
Not available.

Snow Depth

Station Depth Elevation

Earthquake Activity

City Distance Mag. Time & Date
Minimum magnitude displayed is 2.5.

Coastal Water Temperatures

Place Temperature

Stations

Nearby Weather Stations

Station Location Temp. Windchill Dew Point Humidity Wind Precip. Elev Updated Type